Time;durP1;ratioP1;P1;durP2;ratioP2;P2;SDS_P1;SDS_P2;PMS_P1;PMS_P2;Temp;Humidity;BMP_temperature;BMP_pressure;BME280_temperature;BME280_humidity;BME280_pressure;Samples;Min_cycle;Max_cycle;Signal;HPM_P1;HPM_P2
2022/05/27 00:02:03;;;;;;;1.60;0.80;;;12.10;99.90;;;;;;4993410;28;20434;-66
2022/05/27 00:04:29;;;;;;;1.57;0.87;;;12.10;99.90;;;;;;4991504;28;20219;-66
2022/05/27 00:06:54;;;;;;;1.93;1.10;;;12.10;99.90;;;;;;4994551;28;20191;-66
2022/05/27 00:09:21;;;;;;;2.87;1.50;;;12.10;99.90;;;;;;4995012;28;20262;-66
2022/05/27 00:11:47;;;;;;;2.93;1.03;;;12.10;99.90;;;;;;4993906;28;20211;-66
2022/05/27 00:14:12;;;;;;;1.60;0.87;;;12.20;99.90;;;;;;4992382;28;20522;-66
2022/05/27 00:16:38;;;;;;;5.47;1.17;;;12.20;99.90;;;;;;4994472;28;20206;-66
2022/05/27 00:19:04;;;;;;;2.60;1.00;;;12.20;99.90;;;;;;4997126;28;20187;-65
2022/05/27 00:21:29;;;;;;;3.90;1.77;;;12.20;99.90;;;;;;4997666;28;20234;-66
2022/05/27 00:23:55;;;;;;;1.67;0.80;;;12.20;99.90;;;;;;4985875;28;20188;-65
2022/05/27 00:26:21;;;;;;;6.47;1.20;;;12.20;99.90;;;;;;4994980;28;20215;-66
2022/05/27 00:28:46;;;;;;;4.83;1.50;;;12.20;99.90;;;;;;4996273;28;20545;-66
2022/05/27 00:31:12;;;;;;;6.27;1.00;;;12.10;99.90;;;;;;4994827;28;20212;-66
2022/05/27 00:33:39;;;;;;;5.50;1.00;;;12.10;99.90;;;;;;4987738;28;20242;-66
2022/05/27 00:36:10;;;;;;;4.30;0.90;;;12.20;99.90;;;;;;4995661;28;20351;-66
2022/05/27 00:38:36;;;;;;;6.03;0.97;;;12.10;99.90;;;;;;4993349;28;20434;-65
2022/05/27 00:41:03;;;;;;;2.10;1.20;;;12.10;99.90;;;;;;4992764;28;20445;-65
2022/05/27 00:43:28;;;;;;;1.70;0.90;;;12.10;99.90;;;;;;4987174;28;20478;-66
2022/05/27 00:46:22;;;;;;;1.50;0.70;;;12.10;99.90;;;;;;4994459;28;20501;-65
2022/05/27 00:48:51;;;;;;;3.70;1.00;;;12.10;99.90;;;;;;4993614;28;20195;-66
2022/05/27 00:51:24;;;;;;;2.90;0.80;;;12.00;99.90;;;;;;4989085;28;20702;-65
2022/05/27 00:54:25;;;;;;;3.60;1.10;;;12.00;99.90;;;;;;4985851;28;20431;-66
2022/05/27 00:56:56;;;;;;;1.67;0.80;;;12.00;99.90;;;;;;4982489;28;20433;-65
2022/05/27 00:59:34;;;;;;;2.63;1.00;;;11.90;99.90;;;;;;4994061;28;20440;-65
2022/05/27 01:01:59;;;;;;;1.73;1.00;;;11.90;99.90;;;;;;4985926;28;20525;-65
2022/05/27 01:04:28;;;;;;;1.77;0.90;;;11.80;99.90;;;;;;4991092;28;20485;-65
2022/05/27 01:06:54;;;;;;;1.63;0.70;;;11.80;99.90;;;;;;5000671;28;20373;-65
2022/05/27 01:09:20;;;;;;;2.77;1.00;;;11.70;99.90;;;;;;4987374;28;20904;-65
2022/05/27 01:12:07;;;;;;;2.57;0.97;;;11.70;99.90;;;;;;4992949;28;20430;-65
2022/05/27 01:15:04;;;;;;;2.37;1.07;;;11.60;99.90;;;;;;4983144;28;20426;-65
2022/05/27 01:17:45;;;;;;;2.17;1.00;;;11.60;99.90;;;;;;4986780;28;20800;-65
2022/05/27 01:20:21;;;;;;;2.90;0.90;;;11.60;99.90;;;;;;4990550;28;20767;-65
2022/05/27 01:23:13;;;;;;;2.27;0.90;;;11.60;99.90;;;;;;4994678;28;20798;-65
2022/05/27 01:26:19;;;;;;;2.63;1.13;;;11.60;99.90;;;;;;4990066;28;21006;-65
2022/05/27 01:29:06;;;;;;;4.50;1.80;;;11.70;99.90;;;;;;4994127;28;20422;-66
2022/05/27 01:31:48;;;;;;;2.03;1.00;;;11.80;99.90;;;;;;4982491;28;20433;-65
2022/05/27 01:34:29;;;;;;;2.40;1.13;;;11.80;99.90;;;;;;4996821;28;20896;-66
2022/05/27 01:37:01;;;;;;;3.17;1.03;;;11.80;99.90;;;;;;4989213;28;20899;-65
2022/05/27 01:39:38;;;;;;;2.37;1.10;;;11.80;99.90;;;;;;4996295;28;20913;-65
2022/05/27 01:42:32;;;;;;;2.10;1.00;;;11.70;99.90;;;;;;4992585;28;20933;-65
2022/05/27 01:45:31;;;;;;;2.30;0.93;;;11.70;99.90;;;;;;5002856;28;20466;-65
2022/05/27 01:48:22;;;;;;;2.90;0.80;;;11.60;99.90;;;;;;4985170;28;20446;-65
2022/05/27 01:51:09;;;;;;;2.70;1.20;;;11.60;99.90;;;;;;4987416;28;20509;-65
2022/05/27 01:53:59;;;;;;;1.70;0.93;;;11.60;99.90;;;;;;4988771;28;20984;-65
2022/05/27 01:56:38;;;;;;;2.47;1.20;;;11.60;99.90;;;;;;4996707;28;20465;-65
2022/05/27 01:59:13;;;;;;;10.53;1.70;;;11.60;99.90;;;;;;5000042;28;20433;-65
2022/05/27 02:01:44;;;;;;;17.30;1.27;;;11.60;99.90;;;;;;4990177;28;20430;-65
2022/05/27 02:04:36;;;;;;;2.67;1.30;;;11.60;99.90;;;;;;4997598;28;20510;-65
2022/05/27 02:07:11;;;;;;;5.47;1.20;;;11.50;99.90;;;;;;5005992;28;20556;-65
2022/05/27 02:09:50;;;;;;;2.23;0.90;;;11.50;99.90;;;;;;4989858;28;20521;-65
2022/05/27 02:12:25;;;;;;;2.03;0.80;;;11.60;99.90;;;;;;4998984;28;20425;-65
2022/05/27 02:14:59;;;;;;;1.67;1.00;;;11.40;99.90;;;;;;4990474;28;20425;-65
2022/05/27 02:17:29;;;;;;;1.87;0.80;;;11.30;99.90;;;;;;4998889;28;20504;-66
2022/05/27 02:19:57;;;;;;;1.90;1.00;;;11.20;99.90;;;;;;5005337;28;20418;-66
2022/05/27 02:22:30;;;;;;;2.70;1.27;;;11.20;99.90;;;;;;5003334;28;20509;-65
2022/05/27 02:25:08;;;;;;;2.00;0.87;;;11.20;99.90;;;;;;5002650;28;20779;-65
2022/05/27 02:27:40;;;;;;;7.27;1.87;;;11.20;99.90;;;;;;4986531;28;20431;-65
2022/05/27 02:30:11;;;;;;;2.73;1.33;;;11.20;99.90;;;;;;4996025;28;20431;-65
2022/05/27 02:35:07;;;;;;;1.70;1.10;;;11.20;99.90;;;;;;4995758;28;20435;-66
2022/05/27 02:35:44;;;;;;;1.73;0.90;;;11.20;99.90;;;;;;4996241;28;20434;-65
2022/05/27 02:38:10;;;;;;;2.07;1.00;;;11.20;99.90;;;;;;4998871;28;20959;-65
2022/05/27 02:41:06;;;;;;;9.70;1.30;;;11.20;99.90;;;;;;4995027;28;20446;-65
2022/05/27 02:43:38;;;;;;;4.93;1.00;;;11.30;99.90;;;;;;4989061;28;20419;-65
2022/05/27 02:46:37;;;;;;;2.03;1.00;;;11.30;99.90;;;;;;5000657;28;20491;-65
2022/05/27 02:49:14;;;;;;;2.10;0.80;;;11.30;99.90;;;;;;4994564;28;20961;-65
2022/05/27 02:51:52;;;;;;;2.70;1.10;;;11.40;99.90;;;;;;4995758;28;20418;-65
2022/05/27 02:54:32;;;;;;;2.77;0.70;;;11.40;99.90;;;;;;4997133;28;20454;-65
2022/05/27 02:57:09;;;;;;;3.00;1.50;;;11.40;99.90;;;;;;4993755;28;20915;-65
2022/05/27 02:59:37;;;;;;;2.00;1.20;;;11.40;99.90;;;;;;4987432;28;20428;-65
2022/05/27 03:02:06;;;;;;;1.90;1.10;;;11.40;99.90;;;;;;4989972;28;20431;-65
2022/05/27 03:04:33;;;;;;;2.27;1.07;;;11.40;99.90;;;;;;4987254;28;20754;-65
2022/05/27 03:07:17;;;;;;;3.03;1.37;;;11.40;99.90;;;;;;4992047;28;20426;-65
2022/05/27 03:10:02;;;;;;;4.27;2.10;;;11.30;99.90;;;;;;4996199;28;20431;-65
2022/05/27 03:12:46;;;;;;;2.00;1.07;;;11.30;99.90;;;;;;4993330;28;20467;-65
2022/05/27 03:15:27;;;;;;;3.70;1.20;;;11.30;99.90;;;;;;4989448;28;20496;-65
2022/05/27 03:18:02;;;;;;;11.50;1.43;;;11.20;99.90;;;;;;4986565;28;20433;-65
2022/05/27 03:21:17;;;;;;;2.40;1.23;;;11.20;99.90;;;;;;4992059;28;20413;-65
2022/05/27 03:23:54;;;;;;;2.80;1.03;;;11.20;99.90;;;;;;4974460;28;20515;-66
2022/05/27 03:26:22;;;;;;;1.87;1.00;;;11.10;99.90;;;;;;4987808;28;20533;-65
2022/05/27 03:29:16;;;;;;;8.30;1.17;;;11.10;99.90;;;;;;4993329;28;20427;-65
2022/05/27 03:31:52;;;;;;;6.43;1.30;;;11.00;99.90;;;;;;4986103;28;20431;-65
2022/05/27 03:34:24;;;;;;;4.83;1.27;;;11.00;99.90;;;;;;4991478;28;20531;-65
2022/05/27 03:37:05;;;;;;;5.40;1.80;;;11.00;99.90;;;;;;4993403;28;20418;-65
2022/05/27 03:39:50;;;;;;;3.30;1.70;;;11.00;99.90;;;;;;4980762;28;20426;-65
2022/05/27 03:42:19;;;;;;;1.87;1.00;;;11.00;99.90;;;;;;4989485;28;20419;-66
2022/05/27 03:45:00;;;;;;;2.13;1.07;;;11.00;99.90;;;;;;4994655;28;20460;-65
2022/05/27 03:47:26;;;;;;;3.43;1.30;;;11.10;99.90;;;;;;4979200;28;20421;-65
2022/05/27 03:49:51;;;;;;;1.97;1.03;;;11.10;99.90;;;;;;4988156;28;20419;-65
2022/05/27 03:52:26;;;;;;;2.23;1.03;;;11.20;99.90;;;;;;4997670;28;20471;-65
2022/05/27 03:54:52;;;;;;;2.33;1.20;;;11.20;99.90;;;;;;5003961;28;20244;-65
2022/05/27 03:57:17;;;;;;;2.40;1.23;;;11.20;99.90;;;;;;4998923;28;20964;-65
2022/05/27 03:59:43;;;;;;;5.73;1.30;;;11.30;99.90;;;;;;4986274;28;20189;-65
2022/05/27 04:02:09;;;;;;;3.77;1.13;;;11.40;99.90;;;;;;4993533;28;20551;-64
2022/05/27 04:04:35;;;;;;;2.93;1.30;;;11.40;99.90;;;;;;4989617;28;20209;-65
2022/05/27 04:07:01;;;;;;;2.40;1.20;;;11.50;99.90;;;;;;4993577;28;20535;-66
2022/05/27 04:09:27;;;;;;;2.00;1.07;;;11.50;99.90;;;;;;4992236;28;20566;-65
2022/05/27 04:11:54;;;;;;;3.93;1.17;;;11.60;99.90;;;;;;4998237;28;20187;-65
2022/05/27 04:14:20;;;;;;;2.13;0.83;;;11.60;99.90;;;;;;4994916;28;20186;-65
2022/05/27 04:16:45;;;;;;;2.70;0.93;;;11.70;99.90;;;;;;4996706;28;20794;-66
2022/05/27 04:19:11;;;;;;;2.20;1.30;;;11.80;99.90;;;;;;4988940;28;20625;-65
2022/05/27 04:21:37;;;;;;;7.07;1.10;;;11.80;99.90;;;;;;4996084;28;20186;-65
2022/05/27 04:24:03;;;;;;;2.20;1.20;;;11.80;99.90;;;;;;4986352;28;20192;-65
2022/05/27 04:26:29;;;;;;;2.80;1.00;;;11.90;99.90;;;;;;4994650;28;20511;-64
2022/05/27 04:28:55;;;;;;;2.43;0.90;;;11.90;99.90;;;;;;4993163;28;20442;-65
2022/05/27 04:31:21;;;;;;;1.60;0.90;;;12.00;99.90;;;;;;4993379;28;20183;-65
2022/05/27 04:33:46;;;;;;;8.10;1.40;;;11.90;99.90;;;;;;4995997;28;20183;-65
2022/05/27 04:36:15;;;;;;;2.23;1.20;;;12.00;99.90;;;;;;4996317;28;20279;-65
2022/05/27 04:38:41;;;;;;;3.03;1.50;;;11.90;99.90;;;;;;4989809;28;20190;-65
2022/05/27 04:41:07;;;;;;;6.07;1.20;;;11.90;99.90;;;;;;4989237;28;20431;-65
2022/05/27 04:43:34;;;;;;;2.83;1.30;;;11.80;99.90;;;;;;5001540;28;20446;-65
2022/05/27 04:46:00;;;;;;;3.37;1.30;;;11.80;99.90;;;;;;4996580;28;20659;-65
2022/05/27 04:48:26;;;;;;;2.50;1.27;;;11.80;99.90;;;;;;4995584;28;20771;-65
2022/05/27 04:50:52;;;;;;;5.10;1.40;;;11.80;99.90;;;;;;4986940;28;20906;-65
2022/05/27 04:53:18;;;;;;;3.23;1.43;;;11.90;99.90;;;;;;4985142;28;20456;-65
2022/05/27 04:55:43;;;;;;;4.30;1.90;;;11.80;99.90;;;;;;4995989;28;20839;-65
2022/05/27 04:58:11;;;;;;;2.90;1.73;;;11.80;99.90;;;;;;4989946;28;20246;-65
2022/05/27 05:00:43;;;;;;;2.43;1.27;;;11.80;99.90;;;;;;4993929;28;20188;-65
2022/05/27 05:03:09;;;;;;;2.07;1.00;;;11.90;99.90;;;;;;4984817;28;20434;-65
2022/05/27 05:05:35;;;;;;;2.00;1.17;;;12.00;99.90;;;;;;4997218;28;20512;-65
2022/05/27 05:08:06;;;;;;;2.03;1.17;;;12.00;99.90;;;;;;4991144;28;20488;-65
2022/05/27 05:10:32;;;;;;;4.73;1.03;;;12.20;99.90;;;;;;4997600;28;20422;-68
2022/05/27 05:12:58;;;;;;;3.20;1.00;;;12.40;99.90;;;;;;4987241;28;20419;-68
2022/05/27 05:15:26;;;;;;;4.33;1.20;;;12.50;99.90;;;;;;4994325;28;20974;-65
2022/05/27 05:17:52;;;;;;;7.43;0.90;;;12.60;99.90;;;;;;4993543;28;20426;-66
2022/05/27 05:20:22;;;;;;;2.80;1.40;;;12.70;99.90;;;;;;4996241;28;20448;-65
2022/05/27 05:22:49;;;;;;;3.50;1.87;;;12.80;99.90;;;;;;4987433;28;20485;-65
2022/05/27 05:25:15;;;;;;;2.43;1.30;;;13.00;99.90;;;;;;4995962;28;20478;-65
2022/05/27 05:27:41;;;;;;;2.67;0.87;;;13.10;99.90;;;;;;4990732;28;20423;-66
2022/05/27 05:30:12;;;;;;;3.57;1.30;;;13.20;99.90;;;;;;4993482;28;20458;-65
2022/05/27 05:32:39;;;;;;;2.60;1.20;;;13.30;99.90;;;;;;4993686;28;20923;-64
2022/05/27 05:35:05;;;;;;;2.33;1.07;;;13.40;99.90;;;;;;4990279;28;20836;-65
2022/05/27 05:37:31;;;;;;;3.00;1.40;;;13.40;99.90;;;;;;4993057;28;20809;-64
2022/05/27 05:39:57;;;;;;;2.40;1.17;;;13.40;99.90;;;;;;4992439;28;20427;-64
2022/05/27 05:42:23;;;;;;;2.53;1.27;;;13.50;99.90;;;;;;4990474;28;20191;-65
2022/05/27 05:44:49;;;;;;;2.30;1.23;;;13.50;99.90;;;;;;4993906;28;20514;-64
2022/05/27 05:47:15;;;;;;;3.07;1.30;;;13.50;99.90;;;;;;4988831;28;20434;-64
2022/05/27 05:49:41;;;;;;;2.07;1.07;;;13.50;99.90;;;;;;4988500;28;20188;-64
2022/05/27 05:52:07;;;;;;;4.23;1.37;;;13.50;99.90;;;;;;4988478;28;20180;-65
2022/05/27 05:54:32;;;;;;;2.40;1.33;;;13.50;99.90;;;;;;4988066;28;20469;-65
2022/05/27 05:57:03;;;;;;;4.60;1.47;;;13.50;99.90;;;;;;4994441;28;20188;-64
2022/05/27 05:59:31;;;;;;;3.10;1.50;;;13.50;99.90;;;;;;4982626;28;20184;-64
2022/05/27 06:02:00;;;;;;;2.53;1.20;;;13.50;99.90;;;;;;4988532;28;20510;-67
2022/05/27 06:04:26;;;;;;;3.20;1.63;;;13.50;99.90;;;;;;4989224;28;20908;-66
2022/05/27 06:06:52;;;;;;;2.10;1.10;;;13.50;99.90;;;;;;4993093;28;20429;-64
2022/05/27 06:09:19;;;;;;;4.43;2.13;;;13.60;99.90;;;;;;4989444;28;20461;-66
2022/05/27 06:11:45;;;;;;;2.70;1.40;;;13.50;99.90;;;;;;4989818;28;20187;-66
2022/05/27 06:14:11;;;;;;;2.47;1.00;;;13.50;99.90;;;;;;4988161;28;20780;-66
2022/05/27 06:16:37;;;;;;;3.27;1.00;;;13.50;99.90;;;;;;4994087;28;20294;-66
2022/05/27 06:19:02;;;;;;;2.37;0.90;;;13.60;99.90;;;;;;4991517;28;20197;-66
2022/05/27 06:21:28;;;;;;;3.10;1.27;;;13.60;99.90;;;;;;4986686;28;20282;-66
2022/05/27 06:23:54;;;;;;;2.77;1.20;;;13.60;99.90;;;;;;4978733;28;20623;-66
2022/05/27 06:26:20;;;;;;;9.40;2.03;;;13.70;99.90;;;;;;4976284;28;20317;-66
2022/05/27 06:34:29;;;;;;;3.70;1.53;;;14.00;99.90;;;;;;4988896;28;20433;-66
2022/05/27 06:37:02;;;;;;;5.37;1.67;;;14.10;99.90;;;;;;4991719;28;20426;-66
2022/05/27 06:39:29;;;;;;;3.80;1.57;;;14.10;99.90;;;;;;4980930;28;20430;-66
2022/05/27 06:41:55;;;;;;;3.67;1.23;;;14.20;99.90;;;;;;4991922;28;20416;-66
2022/05/27 06:44:21;;;;;;;4.47;1.53;;;14.30;99.90;;;;;;4995840;28;21122;-66
2022/05/27 06:46:51;;;;;;;2.33;1.40;;;14.40;99.90;;;;;;4987927;28;20592;-66
2022/05/27 06:49:18;;;;;;;3.53;1.63;;;14.50;99.90;;;;;;4988807;28;20191;-66
2022/05/27 06:51:43;;;;;;;4.00;1.50;;;14.50;99.90;;;;;;4987092;28;20888;-66
2022/05/27 06:54:10;;;;;;;2.33;1.00;;;14.70;99.90;;;;;;4987469;28;20995;-66
2022/05/27 06:56:38;;;;;;;3.13;1.40;;;14.80;99.90;;;;;;4988587;28;20191;-66
2022/05/27 06:59:04;;;;;;;4.80;1.60;;;14.80;99.90;;;;;;4988295;28;20434;-66
2022/05/27 07:01:31;;;;;;;4.00;1.53;;;14.90;99.90;;;;;;4984417;28;20423;-64
2022/05/27 07:03:57;;;;;;;8.03;2.10;;;14.90;99.90;;;;;;4991140;28;20458;-64
2022/05/27 07:06:26;;;;;;;3.13;1.47;;;15.00;99.90;;;;;;4988316;28;20473;-64
2022/05/27 07:08:51;;;;;;;4.60;1.80;;;15.10;99.90;;;;;;4989590;28;20423;-64
2022/05/27 07:11:17;;;;;;;2.03;1.17;;;15.00;99.90;;;;;;4991423;28;20430;-64
2022/05/27 07:13:43;;;;;;;3.93;1.23;;;15.20;99.90;;;;;;4986330;28;20993;-64
2022/05/27 07:16:08;;;;;;;5.60;1.60;;;15.10;99.90;;;;;;4987457;28;20196;-64
2022/05/27 07:18:34;;;;;;;3.07;1.73;;;15.00;99.90;;;;;;4993732;28;20187;-65
2022/05/27 07:21:06;;;;;;;9.87;1.57;;;15.00;99.90;;;;;;4989592;28;20184;-64
2022/05/27 07:23:31;;;;;;;6.07;1.77;;;15.10;99.90;;;;;;4998998;28;20194;-64
2022/05/27 07:25:57;;;;;;;2.77;1.47;;;15.20;99.90;;;;;;4991877;28;20959;-64
2022/05/27 07:28:23;;;;;;;4.83;1.97;;;15.40;99.90;;;;;;4988416;28;20183;-64
2022/05/27 07:30:49;;;;;;;6.63;1.80;;;15.50;99.90;;;;;;4992301;28;20188;-64
2022/05/27 07:33:15;;;;;;;6.80;1.43;;;15.50;99.90;;;;;;4985543;28;20456;-64
2022/05/27 07:35:41;;;;;;;4.37;2.47;;;15.40;99.90;;;;;;4985089;28;20199;-64
2022/05/27 07:38:07;;;;;;;3.73;1.97;;;15.40;99.90;;;;;;4981523;28;20315;-64
2022/05/27 07:40:32;;;;;;;2.80;1.50;;;15.40;99.90;;;;;;4985881;28;20512;-64
2022/05/27 07:42:58;;;;;;;1.67;0.97;;;15.20;99.90;;;;;;4980088;28;20287;-64
2022/05/27 07:45:27;;;;;;;3.70;1.43;;;15.20;99.90;;;;;;4985103;28;20294;-64
2022/05/27 07:47:56;;;;;;;2.37;1.23;;;15.20;99.90;;;;;;4992614;28;20764;-64
2022/05/27 07:50:22;;;;;;;2.27;0.90;;;15.20;99.90;;;;;;4998448;28;20445;-64
2022/05/27 07:52:48;;;;;;;3.90;1.80;;;15.30;99.90;;;;;;4992433;28;20437;-65
2022/05/27 07:55:15;;;;;;;3.10;1.77;;;15.50;99.90;;;;;;4995802;28;20434;-64
2022/05/27 07:57:43;;;;;;;4.17;1.87;;;15.60;99.90;;;;;;4980554;28;20924;-65
2022/05/27 08:00:12;;;;;;;5.17;2.00;;;15.70;99.90;;;;;;4993239;28;20431;-65
2022/05/27 08:02:39;;;;;;;4.73;1.30;;;15.70;99.90;;;;;;4988922;28;20494;-64
2022/05/27 08:05:07;;;;;;;12.93;1.30;;;15.60;99.90;;;;;;4996877;28;20966;-64
2022/05/27 08:07:33;;;;;;;3.20;1.33;;;15.40;99.90;;;;;;4988458;28;20992;-64
2022/05/27 08:09:58;;;;;;;11.63;1.40;;;15.30;99.90;;;;;;4998154;28;20430;-64
2022/05/27 08:12:24;;;;;;;2.17;1.17;;;15.30;99.90;;;;;;5000437;28;20191;-64
2022/05/27 08:14:50;;;;;;;2.60;1.37;;;15.40;99.90;;;;;;4996662;28;20663;-64
2022/05/27 08:17:16;;;;;;;2.50;1.30;;;15.40;99.90;;;;;;4990847;28;20199;-64
2022/05/27 08:19:41;;;;;;;3.50;1.40;;;15.40;99.90;;;;;;4994179;28;20253;-65
2022/05/27 08:22:07;;;;;;;4.70;1.37;;;15.20;99.90;;;;;;4990429;28;20355;-64
2022/05/27 08:24:33;;;;;;;2.80;1.33;;;15.20;99.90;;;;;;4994589;28;20233;-64
2022/05/27 08:26:58;;;;;;;3.60;1.73;;;15.20;99.90;;;;;;4989043;28;20211;-64
2022/05/27 08:29:25;;;;;;;2.57;1.30;;;15.20;99.90;;;;;;4992772;28;20198;-65
2022/05/27 08:31:51;;;;;;;5.87;1.97;;;15.20;99.90;;;;;;4994677;28;20232;-64
2022/05/27 08:39:48;;;;;;;2.90;1.53;;;15.40;99.90;;;;;;4997845;28;20759;-64
2022/05/27 08:42:42;;;;;;;2.70;1.27;;;15.70;99.90;;;;;;4997397;28;20453;-65
2022/05/27 08:45:14;;;;;;;4.50;1.20;;;15.80;99.90;;;;;;4998461;28;20469;-65
2022/05/27 08:47:54;;;;;;;3.73;1.70;;;15.90;99.90;;;;;;4998663;28;20435;-65
2022/05/27 08:50:35;;;;;;;5.90;1.37;;;16.00;99.90;;;;;;4983452;28;20954;-65
2022/05/27 08:53:20;;;;;;;4.40;1.53;;;16.00;99.90;;;;;;4996112;28;20446;-65
2022/05/27 09:01:41;;;;;;;3.20;2.00;;;16.00;99.90;;;;;;4994372;28;20413;-64
2022/05/27 09:04:18;;;;;;;2.93;1.50;;;15.90;99.90;;;;;;5002492;28;20954;-64
2022/05/27 09:07:06;;;;;;;4.80;2.17;;;16.10;99.90;;;;;;4999162;28;20466;-65
2022/05/27 09:09:32;;;;;;;4.87;1.97;;;16.10;99.80;;;;;;4983749;28;20518;-65
2022/05/27 09:12:35;;;;;;;4.20;1.97;;;16.30;99.50;;;;;;4988542;28;20435;-64
2022/05/27 09:15:27;;;;;;;3.10;1.33;;;16.50;99.10;;;;;;4990217;28;20450;-65
2022/05/27 09:18:07;;;;;;;6.43;1.60;;;16.60;98.80;;;;;;4984610;28;20501;-65
2022/05/27 09:20:48;;;;;;;1.87;1.27;;;16.70;98.20;;;;;;4991513;28;20464;-64
2022/05/27 09:23:44;;;;;;;2.80;1.43;;;16.80;98.60;;;;;;4995332;28;20435;-65
2022/05/27 09:26:26;;;;;;;2.10;1.20;;;17.80;98.00;;;;;;4992842;28;20466;-65
2022/05/27 09:29:15;;;;;;;2.43;1.20;;;17.90;97.00;;;;;;4987078;28;20439;-65
2022/05/27 09:31:52;;;;;;;3.60;1.63;;;17.80;96.00;;;;;;4989806;28;20603;-65
2022/05/27 09:34:19;;;;;;;3.60;1.27;;;17.90;96.50;;;;;;4995804;28;20437;-65
2022/05/27 09:36:49;;;;;;;2.83;1.00;;;17.80;96.50;;;;;;4983983;28;20906;-65
2022/05/27 09:39:20;;;;;;;2.50;1.10;;;17.70;96.50;;;;;;4997341;28;20435;-65
2022/05/27 09:41:55;;;;;;;2.10;1.00;;;18.30;95.60;;;;;;4994259;28;21360;-65
2022/05/27 09:44:34;;;;;;;2.77;1.37;;;18.80;95.00;;;;;;5001105;28;20413;-65
2022/05/27 09:47:02;;;;;;;3.80;1.03;;;19.50;94.20;;;;;;4988052;28;20426;-65
2022/05/27 09:49:27;;;;;;;3.93;1.20;;;19.30;94.40;;;;;;4998018;28;20890;-65
2022/05/27 09:51:53;;;;;;;3.03;1.27;;;18.90;93.60;;;;;;4992136;28;20431;-65
2022/05/27 09:54:38;;;;;;;5.47;1.20;;;18.80;94.40;;;;;;4990121;28;20178;-65
2022/05/27 09:57:10;;;;;;;3.40;1.30;;;19.00;94.00;;;;;;4996433;28;20218;-65
2022/05/27 09:59:39;;;;;;;2.30;0.93;;;19.20;92.90;;;;;;4985269;28;20427;-64
2022/05/27 10:02:14;;;;;;;4.27;1.73;;;19.20;93.00;;;;;;4997888;28;20419;-64
2022/05/27 10:05:01;;;;;;;5.17;1.53;;;19.60;91.80;;;;;;5001877;28;20424;-65
2022/05/27 10:07:37;;;;;;;3.67;1.67;;;19.80;92.00;;;;;;4994891;28;20421;-65
2022/05/27 10:10:34;;;;;;;1.83;0.83;;;19.70;90.50;;;;;;4998266;28;20434;-64
2022/05/27 10:13:28;;;;;;;2.10;1.27;;;19.60;91.00;;;;;;4993645;28;20517;-64
2022/05/27 10:16:03;;;;;;;2.87;1.30;;;19.80;90.20;;;;;;4989708;28;20434;-64
2022/05/27 10:18:29;;;;;;;7.33;0.90;;;19.80;90.30;;;;;;4983189;28;20915;-65
2022/05/27 10:21:09;;;;;;;3.70;1.20;;;19.50;87.60;;;;;;4994970;28;20433;-65
2022/05/27 10:23:40;;;;;;;2.60;1.40;;;19.50;88.00;;;;;;4994432;28;20425;-65
2022/05/27 10:26:18;;;;;;;1.90;0.70;;;19.60;90.10;;;;;;4993998;28;20813;-64
2022/05/27 10:28:43;;;;;;;1.80;0.70;;;19.70;88.40;;;;;;4999150;28;20426;-65
2022/05/27 10:31:16;;;;;;;2.40;0.70;;;19.90;88.60;;;;;;5000988;28;20878;-65
2022/05/27 10:33:47;;;;;;;3.37;1.03;;;20.00;88.50;;;;;;4999080;28;20387;-65
2022/05/27 10:37:05;;;;;;;2.10;0.83;;;19.90;86.60;;;;;;4992628;28;20431;-65
2022/05/27 10:39:38;;;;;;;2.50;0.97;;;19.60;87.90;;;;;;4980831;28;21054;-65
2022/05/27 10:42:40;;;;;;;4.73;0.87;;;19.30;89.30;;;;;;4989956;28;20948;-65
2022/05/27 10:45:21;;;;;;;9.67;1.20;;;19.30;88.80;;;;;;4990095;28;20461;-65
2022/05/27 10:48:14;;;;;;;2.53;0.93;;;19.10;89.80;;;;;;5000196;28;20462;-65
2022/05/27 10:50:47;;;;;;;3.30;0.93;;;18.80;90.40;;;;;;4990264;28;20501;-65
2022/05/27 10:53:31;;;;;;;2.43;1.10;;;18.70;90.50;;;;;;4996707;28;20485;-65
2022/05/27 10:56:29;;;;;;;4.37;1.20;;;18.70;90.70;;;;;;4992847;28;20456;-65
2022/05/27 11:02:15;;;;;;;2.90;0.80;;;19.20;90.70;;;;;;4994187;28;20504;-65
2022/05/27 11:04:45;;;;;;;2.90;0.70;;;19.00;90.10;;;;;;4992958;28;20427;-65
2022/05/27 11:07:14;;;;;;;9.53;0.80;;;19.50;88.60;;;;;;4992643;28;20485;-65
2022/05/27 11:09:48;;;;;;;2.10;1.10;;;19.60;86.80;;;;;;4991870;28;20459;-66
2022/05/27 11:15:10;;;;;;;1.90;0.90;;;19.60;88.90;;;;;;5001761;28;20505;-65
2022/05/27 11:15:41;;;;;;;2.87;1.10;;;19.50;86.90;;;;;;4989871;28;20431;-65
2022/05/27 11:18:45;;;;;;;2.33;0.70;;;19.10;88.00;;;;;;4989965;28;20458;-65
2022/05/27 11:21:21;;;;;;;1.80;0.83;;;19.00;88.80;;;;;;4996377;28;20422;-65
2022/05/27 11:23:49;;;;;;;1.93;0.60;;;19.00;88.00;;;;;;4990734;28;21198;-65
2022/05/27 11:26:18;;;;;;;2.43;0.83;;;19.10;87.60;;;;;;4988425;28;21770;-65
2022/05/27 11:29:02;;;;;;;1.93;0.90;;;19.00;86.10;;;;;;4994515;28;20465;-65
2022/05/27 11:31:52;;;;;;;3.50;1.00;;;18.80;86.40;;;;;;4986135;28;20525;-65
2022/05/27 11:34:24;;;;;;;2.03;1.20;;;18.80;87.40;;;;;;4992221;28;20442;-65
2022/05/27 11:37:11;;;;;;;1.40;0.67;;;18.80;88.80;;;;;;4992410;28;20444;-65
2022/05/27 11:39:55;;;;;;;1.97;1.00;;;18.70;87.70;;;;;;4993545;28;20422;-65
2022/05/27 11:42:39;;;;;;;2.37;0.83;;;18.60;88.40;;;;;;4997403;28;20792;-65
2022/05/27 11:45:17;;;;;;;1.40;0.60;;;18.70;87.60;;;;;;4986419;28;20463;-65
2022/05/27 11:48:06;;;;;;;3.10;0.83;;;18.70;89.00;;;;;;4987975;28;20434;-65
2022/05/27 11:50:47;;;;;;;2.13;0.50;;;19.10;89.80;;;;;;4990202;28;20860;-65
2022/05/27 11:53:34;;;;;;;1.60;0.70;;;19.50;88.10;;;;;;4976753;28;20415;-65
2022/05/27 11:56:25;;;;;;;2.07;0.70;;;19.50;88.80;;;;;;4977608;28;20825;-65
2022/05/27 11:58:59;;;;;;;2.67;0.83;;;19.50;88.30;;;;;;4978518;28;20935;-65
2022/05/27 12:01:36;;;;;;;1.73;0.70;;;19.50;88.80;;;;;;4984356;28;20892;-66
2022/05/27 12:04:05;;;;;;;2.10;0.83;;;19.40;86.50;;;;;;4987086;28;21239;-65
2022/05/27 12:06:54;;;;;;;4.90;0.60;;;19.20;87.40;;;;;;4986867;28;20477;-65
2022/05/27 12:09:34;;;;;;;1.60;0.77;;;19.00;87.80;;;;;;4972479;28;20461;-65
2022/05/27 12:12:14;;;;;;;2.37;1.10;;;19.10;88.00;;;;;;4973775;28;20558;-65
2022/05/27 12:15:20;;;;;;;3.40;0.83;;;19.20;89.10;;;;;;4983060;28;20403;-65
2022/05/27 12:17:50;;;;;;;1.70;0.80;;;19.40;88.00;;;;;;4987518;28;21086;-64
2022/05/27 12:20:33;;;;;;;2.30;1.00;;;19.30;90.00;;;;;;4986488;28;20420;-65
2022/05/27 12:23:04;;;;;;;1.80;0.80;;;19.50;89.00;;;;;;4990628;28;20467;-64
2022/05/27 12:25:35;;;;;;;2.40;0.70;;;19.50;87.70;;;;;;4976560;28;20481;-67
2022/05/27 12:28:03;;;;;;;1.50;0.60;;;19.50;88.80;;;;;;4986676;28;20776;-65
2022/05/27 12:30:40;;;;;;;1.60;0.60;;;19.50;87.90;;;;;;4988098;28;20433;-64
2022/05/27 12:33:11;;;;;;;3.83;0.90;;;19.60;89.30;;;;;;4986489;28;20417;-65
2022/05/27 12:35:37;;;;;;;3.00;1.10;;;19.70;88.90;;;;;;4984069;28;20938;-65
2022/05/27 12:38:15;;;;;;;4.67;1.03;;;19.60;89.90;;;;;;4971610;28;20587;-65
2022/05/27 12:40:55;;;;;;;1.60;0.80;;;19.50;88.80;;;;;;4986407;28;20184;-65
2022/05/27 12:43:23;;;;;;;2.27;1.00;;;19.50;89.20;;;;;;4986464;28;20421;-65
2022/05/27 12:45:55;;;;;;;3.33;1.20;;;19.50;88.80;;;;;;4982184;28;20470;-65
2022/05/27 12:48:34;;;;;;;2.07;0.80;;;19.80;90.10;;;;;;4988207;28;20739;-64
2022/05/27 12:51:20;;;;;;;2.60;0.67;;;20.20;87.30;;;;;;4985056;28;20470;-65
2022/05/27 12:53:48;;;;;;;1.40;0.60;;;20.30;86.70;;;;;;4984176;28;20439;-65
2022/05/27 13:02:21;;;;;;;6.23;0.70;;;20.00;88.70;;;;;;4983914;28;20418;-65
2022/05/27 13:04:48;;;;;;;2.80;0.70;;;19.80;88.40;;;;;;4981333;28;20419;-65
2022/05/27 13:07:20;;;;;;;2.30;0.80;;;19.60;87.60;;;;;;4979865;28;20979;-65
2022/05/27 13:09:48;;;;;;;7.40;0.90;;;19.50;90.00;;;;;;4979122;28;20466;-65
2022/05/27 13:12:42;;;;;;;2.50;0.83;;;19.30;89.00;;;;;;4974692;28;20427;-64
2022/05/27 13:15:31;;;;;;;1.70;0.70;;;19.40;89.70;;;;;;4985422;28;20530;-66
2022/05/27 13:18:26;;;;;;;1.40;0.60;;;19.50;89.00;;;;;;4976337;28;20488;-65
2022/05/27 13:21:03;;;;;;;4.80;1.20;;;19.40;88.80;;;;;;4974279;28;20431;-65
2022/05/27 13:23:31;;;;;;;1.97;0.80;;;19.50;89.90;;;;;;4985179;28;20938;-67
2022/05/27 13:26:29;;;;;;;2.80;1.30;;;19.80;88.70;;;;;;4984484;28;20820;-67
2022/05/27 13:28:58;;;;;;;6.30;2.13;;;19.90;87.20;;;;;;4983858;28;20438;-65
2022/05/27 13:31:31;;;;;;;4.53;1.00;;;20.20;88.50;;;;;;4989211;28;20715;-65
2022/05/27 13:34:00;;;;;;;1.80;0.70;;;20.50;89.30;;;;;;4992270;28;20446;-65
2022/05/27 13:36:32;;;;;;;1.93;0.60;;;20.80;86.70;;;;;;4991777;28;20448;-65
2022/05/27 13:39:05;;;;;;;1.77;0.77;;;20.80;85.10;;;;;;4980688;28;20549;-66
2022/05/27 13:41:38;;;;;;;1.90;0.97;;;20.90;86.60;;;;;;4983422;28;20970;-65
2022/05/27 13:44:05;;;;;;;1.70;0.80;;;20.60;85.80;;;;;;4985727;28;20433;-65
2022/05/27 13:46:36;;;;;;;1.50;0.70;;;20.40;85.80;;;;;;4991448;28;20548;-65